Time;durP1;ratioP1;P1;durP2;ratioP2;P2;SDS_P1;SDS_P2;PMS_P1;PMS_P2;Temp;Humidity;BMP_temperature;BMP_pressure;BME280_temperature;BME280_humidity;BME280_pressure;Samples;Min_cycle;Max_cycle;Signal;HPM_P1;HPM_P2
2022/07/01 00:05:31;;;;;;;16.70;10.10;;;15.20;99.90;;;;;;21072578;28;20032;-57
2022/07/01 00:15:34;;;;;;;20.23;11.73;;;15.30;99.90;;;;;;21071963;28;20554;-57
2022/07/01 00:25:36;;;;;;;19.45;12.15;;;15.40;99.90;;;;;;21029831;28;20048;-57
2022/07/01 00:35:39;;;;;;;20.50;13.10;;;15.70;99.90;;;;;;20986901;28;20036;-48
2022/07/01 00:45:49;;;;;;;19.63;11.57;;;16.00;99.90;;;;;;20985954;28;20059;-57
2022/07/01 00:55:51;;;;;;;20.45;12.70;;;16.40;99.90;;;;;;21013464;28;20035;-58
2022/07/01 01:05:56;;;;;;;21.23;12.07;;;16.80;99.90;;;;;;21067997;28;20109;-49
2022/07/01 01:16:00;;;;;;;15.70;9.52;;;17.00;99.90;;;;;;21068050;28;20097;-50
2022/07/01 01:26:02;;;;;;;19.52;10.05;;;17.20;99.90;;;;;;21078860;28;20108;-49
2022/07/01 01:36:06;;;;;;;14.15;9.68;;;17.30;99.90;;;;;;21127412;28;20035;-58
2022/07/01 01:46:09;;;;;;;14.00;8.45;;;17.50;99.90;;;;;;21134235;28;20061;-52
2022/07/01 01:56:11;;;;;;;19.65;8.23;;;17.70;99.90;;;;;;21133583;28;20035;-58
2022/07/01 02:06:16;;;;;;;16.33;8.20;;;17.90;99.90;;;;;;21132876;28;20089;-58
2022/07/01 02:16:19;;;;;;;12.30;7.43;;;18.00;99.90;;;;;;21123893;28;20031;-52
2022/07/01 02:26:22;;;;;;;17.75;8.50;;;17.80;99.90;;;;;;21147951;28;20090;-48
2022/07/01 02:36:24;;;;;;;15.38;8.23;;;17.80;99.90;;;;;;21147489;28;20039;-58
2022/07/01 02:46:27;;;;;;;14.77;9.15;;;17.90;99.90;;;;;;21146678;28;20043;-58
2022/07/01 02:56:29;;;;;;;15.55;10.40;;;17.80;99.90;;;;;;21145845;28;20057;-57
2022/07/01 03:06:31;;;;;;;16.63;9.95;;;17.80;99.90;;;;;;21144558;28;20084;-47
2022/07/01 03:16:34;;;;;;;15.85;9.63;;;17.80;99.90;;;;;;21144272;28;20100;-58
2022/07/01 03:26:37;;;;;;;20.52;11.63;;;18.00;99.90;;;;;;21142922;28;20097;-58
2022/07/01 03:36:39;;;;;;;20.08;10.60;;;17.70;99.90;;;;;;21142859;28;20442;-57
2022/07/01 03:46:41;;;;;;;18.58;12.52;;;17.20;99.90;;;;;;21141807;28;20031;-48
2022/07/01 03:56:44;;;;;;;19.20;11.15;;;16.90;99.90;;;;;;21141164;28;20446;-49
2022/07/01 04:06:47;;;;;;;18.00;10.65;;;16.80;99.90;;;;;;21139730;28;20560;-57
2022/07/01 04:16:51;;;;;;;18.17;9.07;;;17.10;99.90;;;;;;21139608;28;20043;-58
2022/07/01 04:26:54;;;;;;;16.48;9.02;;;17.30;99.90;;;;;;21138239;28;20040;-58
2022/07/01 04:36:56;;;;;;;13.45;8.40;;;17.50;99.90;;;;;;21137552;28;20081;-57
2022/07/01 04:47:00;;;;;;;15.93;7.80;;;17.70;99.90;;;;;;21137015;28;20458;-52
2022/07/01 04:57:03;;;;;;;9.38;6.60;;;17.80;99.90;;;;;;21136302;28;20124;-57
2022/07/01 05:07:06;;;;;;;10.65;6.68;;;17.70;99.90;;;;;;21135258;28;20084;-50
2022/07/01 05:17:10;;;;;;;13.07;5.40;;;17.70;99.90;;;;;;21135535;28;20024;-57
2022/07/01 05:27:12;;;;;;;7.75;5.20;;;17.60;99.90;;;;;;21134258;28;20449;-57
2022/07/01 05:37:17;;;;;;;10.30;4.95;;;17.40;99.90;;;;;;21216129;28;20060;-57
2022/07/01 05:47:20;;;;;;;7.72;4.00;;;17.40;99.90;;;;;;21180465;28;20036;-57
2022/07/01 05:57:22;;;;;;;8.55;3.67;;;17.30;99.90;;;;;;21150755;28;20053;-57
2022/07/01 06:07:25;;;;;;;4.15;2.97;;;17.30;99.90;;;;;;21149614;28;20036;-57
2022/07/01 06:17:28;;;;;;;8.07;2.60;;;17.60;99.90;;;;;;21149132;28;20031;-58
2022/07/01 06:27:30;;;;;;;3.92;2.00;;;19.60;99.90;;;;;;21148806;28;20496;-59
2022/07/01 06:37:35;;;;;;;4.43;2.22;;;24.10;99.40;;;;;;21147520;28;20035;-59
2022/07/01 06:47:38;;;;;;;8.25;1.95;;;26.60;92.50;;;;;;21146576;28;20035;-60
2022/07/01 06:57:40;;;;;;;4.43;1.52;;;27.60;92.10;;;;;;21145322;28;20101;-60
2022/07/01 07:07:43;;;;;;;4.20;1.90;;;30.70;84.10;;;;;;21146230;28;20621;-60
2022/07/01 07:17:46;;;;;;;;;;;31.40;81.40;;;;;;21145243;28;20480;-62
2022/07/01 07:27:48;;;;;;;4.93;2.90;;;32.40;76.00;;;;;;21143104;28;19988;-61
2022/07/01 07:37:51;;;;;;;5.05;2.20;;;33.10;74.70;;;;;;21142878;28;20557;-61
2022/07/01 07:47:54;;;;;;;;;;;32.70;73.80;;;;;;21142802;28;20040;-58
2022/07/01 07:57:56;;;;;;;5.50;2.17;;;32.50;72.70;;;;;;21141277;28;19988;-62
2022/07/01 08:08:01;;;;;;;4.57;2.40;;;31.30;81.90;;;;;;21139923;28;20066;-63
2022/07/01 08:18:04;;;;;;;4.30;2.40;;;31.20;67.60;;;;;;21138612;28;20093;-61
2022/07/01 08:28:07;;;;;;;5.50;2.63;;;30.30;68.50;;;;;;21138335;28;20496;-61
2022/07/01 08:38:09;;;;;;;5.32;2.50;;;30.20;71.70;;;;;;21138297;28;20179;-61
2022/07/01 08:48:12;;;;;;;8.32;2.97;;;30.60;74.90;;;;;;21137559;28;20404;-60
2022/07/01 08:58:14;;;;;;;8.93;3.72;;;30.70;74.70;;;;;;21136390;28;20035;-57
2022/07/01 09:08:17;;;;;;;7.78;4.60;;;29.30;80.20;;;;;;21135947;28;20035;-60
2022/07/01 09:18:20;;;;;;;10.10;4.00;;;27.90;87.70;;;;;;21136525;28;20093;-60
2022/07/01 09:28:25;;;;;;;9.27;4.40;;;27.50;88.50;;;;;;21121185;28;20044;-62
2022/07/01 09:38:28;;;;;;;12.00;5.82;;;27.10;91.50;;;;;;21049090;28;20489;-61
2022/07/01 09:48:33;;;;;;;14.02;6.25;;;27.90;91.00;;;;;;21098308;28;20545;-62
2022/07/01 09:58:38;;;;;;;22.23;7.37;;;28.40;92.70;;;;;;21133561;28;20035;-61
2022/07/01 10:09:03;;;;;;;11.20;7.77;;;28.40;91.30;;;;;;21133138;28;20036;-61
2022/07/01 10:19:25;;;;;;;13.07;9.13;;;28.30;92.40;;;;;;21132814;28;20028;-62
2022/07/01 10:29:32;;;;;;;13.43;7.70;;;28.50;90.90;;;;;;21059175;28;20056;-61
2022/07/01 10:39:53;;;;;;;11.45;8.55;;;27.10;93.80;;;;;;21041962;28;20546;-62
2022/07/01 10:50:08;;;;;;;11.27;7.60;;;27.70;92.30;;;;;;21090145;28;20036;-62
2022/07/01 11:00:13;;;;;;;11.15;7.30;;;28.50;93.00;;;;;;21081053;28;20085;-60
2022/07/01 11:10:18;;;;;;;13.07;7.13;;;28.60;91.90;;;;;;21061069;28;20044;-61
2022/07/01 11:20:27;;;;;;;9.95;5.63;;;27.70;93.00;;;;;;21060225;28;20066;-60
2022/07/01 11:30:29;;;;;;;8.35;5.03;;;26.50;94.70;;;;;;21059062;28;20039;-59
2022/07/01 11:40:32;;;;;;;8.32;4.30;;;26.00;94.20;;;;;;21041978;28;20085;-59
2022/07/01 11:50:35;;;;;;;10.43;4.47;;;25.40;96.10;;;;;;21115939;28;20089;-60
2022/07/01 12:00:38;;;;;;;6.90;3.95;;;25.10;95.20;;;;;;21140836;28;20492;-60
2022/07/01 12:10:41;;;;;;;7.65;3.60;;;25.90;93.10;;;;;;21140341;28;20365;-54
2022/07/01 12:20:57;;;;;;;4.40;2.00;;;26.10;92.50;;;;;;21139380;28;20035;-62
2022/07/01 12:31:07;;;;;;;6.65;2.85;;;27.30;86.80;;;;;;21055647;28;20069;-61
2022/07/01 12:41:30;;;;;;;5.35;3.30;;;28.50;87.00;;;;;;21070514;28;20493;-62
2022/07/01 12:51:33;;;;;;;4.55;3.05;;;28.70;88.90;;;;;;21069951;28;20044;-60
2022/07/01 13:01:35;;;;;;;5.90;3.15;;;27.70;88.10;;;;;;21119089;28;20431;-62
2022/07/01 13:11:38;;;;;;;4.55;2.60;;;27.60;90.60;;;;;;21135756;28;20035;-62
2022/07/01 13:21:41;;;;;;;10.55;3.65;;;29.30;87.50;;;;;;21135574;28;20032;-61
2022/07/01 13:31:43;;;;;;;6.22;3.08;;;28.70;85.40;;;;;;21127396;28;20048;-62
2022/07/01 13:41:46;;;;;;;4.63;2.85;;;29.00;86.00;;;;;;21134020;28;20084;-62
2022/07/01 13:51:48;;;;;;;4.53;2.88;;;28.70;86.10;;;;;;21134270;28;20429;-60
2022/07/01 14:01:51;;;;;;;8.65;2.97;;;28.30;84.90;;;;;;21133456;28;20093;-59
2022/07/01 14:11:56;;;;;;;7.88;2.95;;;26.30;88.60;;;;;;21123501;28;20083;-60
2022/07/01 14:21:59;;;;;;;8.18;3.03;;;26.40;90.40;;;;;;21148981;28;20132;-59
2022/07/01 14:32:02;;;;;;;9.60;2.85;;;25.40;88.90;;;;;;21148063;28;20055;-59
2022/07/01 14:42:05;;;;;;;8.68;3.38;;;24.40;91.30;;;;;;21147570;28;20039;-59
2022/07/01 14:52:07;;;;;;;3.88;2.72;;;24.00;94.10;;;;;;21146723;28;20096;-59
2022/07/01 15:02:10;;;;;;;4.55;2.50;;;25.30;90.60;;;;;;21145689;28;20472;-59
2022/07/01 15:12:13;;;;;;;6.68;2.30;;;24.90;91.10;;;;;;21145081;28;20040;-59
2022/07/01 15:22:17;;;;;;;5.90;2.03;;;24.20;87.90;;;;;;21143903;28;20085;-60
2022/07/01 15:32:19;;;;;;;6.28;2.30;;;26.30;88.20;;;;;;21143447;28;20545;-59
2022/07/01 15:42:22;;;;;;;6.30;2.95;;;25.70;81.60;;;;;;21142353;28;20541;-59
2022/07/01 15:52:24;;;;;;;5.10;2.67;;;23.60;90.20;;;;;;21141569;28;20325;-60
2022/07/01 16:02:26;;;;;;;5.10;2.53;;;25.20;87.60;;;;;;21141142;28;20096;-59
2022/07/01 16:12:30;;;;;;;4.80;2.95;;;24.90;87.60;;;;;;21139945;28;20101;-60
2022/07/01 16:22:37;;;;;;;4.95;3.30;;;24.50;88.90;;;;;;21138748;28;20032;-58
2022/07/01 16:32:46;;;;;;;2.88;1.98;;;23.80;87.50;;;;;;21137263;28;20036;-59
2022/07/01 16:42:49;;;;;;;;;;;23.20;88.10;;;;;;21122535;28;20080;-59
2022/07/01 16:52:53;;;;;;;5.88;1.83;;;23.00;85.80;;;;;;21134077;28;19908;-59
2022/07/01 17:03:01;;;;;;;4.10;1.92;;;22.00;88.10;;;;;;21052309;28;20089;-58
2022/07/01 17:13:04;;;;;;;5.97;2.20;;;21.00;90.90;;;;;;21051718;28;20036;-53
2022/07/01 17:23:24;;;;;;;4.82;1.58;;;20.10;92.10;;;;;;21052246;28;20036;-58
2022/07/01 17:33:27;;;;;;;3.05;1.90;;;19.10;93.20;;;;;;21050271;28;20085;-58
2022/07/01 17:43:31;;;;;;;3.50;1.92;;;18.80;94.50;;;;;;21053436;28;20085;-57
2022/07/01 17:53:34;;;;;;;4.03;1.92;;;18.30;95.20;;;;;;21067094;28;20066;-57
2022/07/01 18:03:38;;;;;;;6.60;2.55;;;17.90;96.40;;;;;;21066331;28;20031;-57
2022/07/01 18:13:56;;;;;;;8.10;2.40;;;17.60;96.90;;;;;;21065593;28;20024;-57
2022/07/01 18:24:02;;;;;;;4.80;1.80;;;17.30;98.20;;;;;;21064741;28;20093;-57
2022/07/01 18:34:08;;;;;;;4.15;2.60;;;17.00;98.80;;;;;;21141239;28;20055;-57
2022/07/01 18:44:10;;;;;;;2.10;1.80;;;16.80;99.30;;;;;;21147523;28;20116;-57
2022/07/01 18:54:13;;;;;;;2.30;1.73;;;16.70;99.30;;;;;;21131191;28;20043;-57
2022/07/01 19:04:15;;;;;;;4.00;2.30;;;16.50;99.00;;;;;;21044869;28;20035;-57
2022/07/01 19:14:17;;;;;;;3.35;1.98;;;16.30;99.10;;;;;;21060463;28;20048;-57
2022/07/01 19:24:20;;;;;;;3.40;1.73;;;16.20;98.30;;;;;;21058942;28;20337;-57
2022/07/01 19:34:23;;;;;;;4.43;2.08;;;16.10;97.90;;;;;;21139033;28;20055;-48
2022/07/01 19:44:26;;;;;;;4.05;1.27;;;15.90;97.90;;;;;;21142330;28;20032;-57
2022/07/01 19:54:28;;;;;;;3.83;1.20;;;15.90;96.50;;;;;;21141957;28;20080;-58
2022/07/01 20:04:31;;;;;;;2.65;1.33;;;16.10;94.60;;;;;;21140832;28;20085;-57
2022/07/01 20:14:33;;;;;;;4.55;1.52;;;16.20;95.00;;;;;;21138836;28;20084;-58
2022/07/01 20:24:37;;;;;;;4.20;1.67;;;16.20;96.60;;;;;;21138283;28;20039;-58
2022/07/01 20:34:39;;;;;;;2.22;1.30;;;16.40;96.70;;;;;;21055635;28;20409;-58
2022/07/01 20:44:43;;;;;;;2.97;2.13;;;16.50;96.80;;;;;;21052955;28;20036;-58
2022/07/01 20:54:46;;;;;;;2.88;1.70;;;16.60;97.10;;;;;;21052599;28;20035;-58
2022/07/01 21:04:51;;;;;;;5.65;1.55;;;16.60;97.10;;;;;;21051931;28;20156;-57
2022/07/01 21:14:54;;;;;;;2.20;1.38;;;16.30;98.30;;;;;;21052908;28;20460;-58
2022/07/01 21:24:57;;;;;;;1.95;1.50;;;16.00;98.20;;;;;;21050906;28;20036;-47
2022/07/01 21:35:03;;;;;;;5.57;1.85;;;15.40;98.50;;;;;;21134209;28;20060;-58
2022/07/01 21:45:07;;;;;;;2.05;1.70;;;15.00;98.90;;;;;;21131346;28;20036;-57
2022/07/01 21:55:10;;;;;;;3.33;2.28;;;14.80;99.90;;;;;;21134173;28;20108;-57
2022/07/01 22:05:16;;;;;;;2.20;1.63;;;14.90;99.90;;;;;;21133274;28;20492;-58
2022/07/01 22:15:18;;;;;;;4.03;2.20;;;15.10;99.90;;;;;;21133588;28;20400;-48
2022/07/01 22:25:22;;;;;;;3.92;1.92;;;15.00;99.90;;;;;;21132456;28;20102;-58
2022/07/01 22:35:29;;;;;;;5.38;2.10;;;15.10;99.90;;;;;;21142733;28;20457;-57
2022/07/01 22:46:00;;;;;;;2.85;1.77;;;15.00;99.90;;;;;;21147282;28;20105;-57
2022/07/01 22:56:10;;;;;;;6.57;2.08;;;14.90;99.90;;;;;;21146466;28;20044;-58
2022/07/01 23:06:18;;;;;;;2.95;1.77;;;14.70;99.90;;;;;;21145950;28;20039;-57
2022/07/01 23:16:26;;;;;;;2.60;2.03;;;14.80;99.90;;;;;;21145169;28;20031;-50
2022/07/01 23:26:31;;;;;;;3.78;1.75;;;14.40;99.90;;;;;;21144241;28;20044;-57
2022/07/01 23:36:34;;;;;;;4.70;2.20;;;14.20;99.90;;;;;;21143564;28;20035;-57
2022/07/01 23:46:36;;;;;;;4.45;2.35;;;14.00;99.90;;;;;;21093132;28;20554;-57
2022/07/01 23:56:38;;;;;;;3.17;2.35;;;13.80;99.90;;;;;;21057728;28;20044;-57
